sensor_id;sensor_type;location;lat;lon;timestamp;pressure;altitude;pressure_sealevel;temperature;humidity
5703;BME280;2876;51.738;10.050;2023-05-12T00:04:38;99292.44;;;11.99;100.00
5703;BME280;2876;51.738;10.050;2023-05-12T00:10:41;99295.72;;;12.07;100.00
5703;BME280;2876;51.738;10.050;2023-05-12T00:16:43;99294.72;;;12.02;100.00
5703;BME280;2876;51.738;10.050;2023-05-12T00:22:45;99301.09;;;12.07;100.00
5703;BME280;2876;51.738;10.050;2023-05-12T00:28:47;99297.00;;;11.98;100.00
5703;BME280;2876;51.738;10.050;2023-05-12T00:34:49;99298.03;;;11.97;100.00
5703;BME280;2876;51.738;10.050;2023-05-12T00:40:51;99294.94;;;11.74;100.00
5703;BME280;2876;51.738;10.050;2023-05-12T00:46:53;99297.19;;;11.57;100.00
5703;BME280;2876;51.738;10.050;2023-05-12T00:52:56;99285.63;;;11.69;100.00
5703;BME280;2876;51.738;10.050;2023-05-12T00:58:59;99293.28;;;11.46;100.00
5703;BME280;2876;51.738;10.050;2023-05-12T01:05:01;99286.47;;;11.50;100.00
5703;BME280;2876;51.738;10.050;2023-05-12T01:11:03;99295.34;;;11.44;100.00
5703;BME280;2876;51.738;10.050;2023-05-12T01:17:11;99290.19;;;11.49;100.00
5703;BME280;2876;51.738;10.050;2023-05-12T01:23:18;99296.78;;;11.53;100.00
5703;BME280;2876;51.738;10.050;2023-05-12T01:29:21;99300.91;;;11.62;100.00
5703;BME280;2876;51.738;10.050;2023-05-12T01:35:24;99296.41;;;11.63;100.00
5703;BME280;2876;51.738;10.050;2023-05-12T01:41:26;99301.75;;;11.63;100.00
5703;BME280;2876;51.738;10.050;2023-05-12T01:47:27;99303.41;;;11.57;100.00
5703;BME280;2876;51.738;10.050;2023-05-12T01:53:29;99305.25;;;11.70;100.00
5703;BME280;2876;51.738;10.050;2023-05-12T01:59:31;99303.41;;;11.71;100.00
5703;BME280;2876;51.738;10.050;2023-05-12T02:05:33;99305.66;;;11.80;100.00
5703;BME280;2876;51.738;10.050;2023-05-12T02:11:36;99309.19;;;11.74;100.00
5703;BME280;2876;51.738;10.050;2023-05-12T02:17:38;99313.13;;;11.78;100.00
5703;BME280;2876;51.738;10.050;2023-05-12T02:23:40;99313.53;;;11.88;100.00
5703;BME280;2876;51.738;10.050;2023-05-12T02:29:42;99315.41;;;11.81;100.00
5703;BME280;2876;51.738;10.050;2023-05-12T02:35:44;99310.84;;;11.88;100.00
5703;BME280;2876;51.738;10.050;2023-05-12T02:41:46;99312.09;;;11.92;100.00
5703;BME280;2876;51.738;10.050;2023-05-12T02:47:48;99305.50;;;11.95;100.00
5703;BME280;2876;51.738;10.050;2023-05-12T02:53:51;99308.34;;;11.80;100.00
5703;BME280;2876;51.738;10.050;2023-05-12T02:59:52;99320.59;;;11.83;100.00
5703;BME280;2876;51.738;10.050;2023-05-12T03:05:54;99322.84;;;11.73;100.00
5703;BME280;2876;51.738;10.050;2023-05-12T03:11:56;99289.56;;;11.87;100.00
5703;BME280;2876;51.738;10.050;2023-05-12T03:17:58;99313.09;;;11.72;100.00
5703;BME280;2876;51.738;10.050;2023-05-12T03:24:00;99320.59;;;11.83;100.00
5703;BME280;2876;51.738;10.050;2023-05-12T03:30:03;99329.66;;;11.75;100.00
5703;BME280;2876;51.738;10.050;2023-05-12T03:36:06;99325.13;;;11.82;100.00
5703;BME280;2876;51.738;10.050;2023-05-12T03:42:08;99333.97;;;11.76;100.00
5703;BME280;2876;51.738;10.050;2023-05-12T03:48:10;99313.75;;;11.87;100.00
5703;BME280;2876;51.738;10.050;2023-05-12T03:54:12;99319.34;;;11.92;100.00
5703;BME280;2876;51.738;10.050;2023-05-12T04:00:14;99307.75;;;11.85;100.00
5703;BME280;2876;51.738;10.050;2023-05-12T04:06:19;99316.84;;;11.84;100.00
5703;BME280;2876;51.738;10.050;2023-05-12T04:12:21;99316.66;;;11.92;100.00
5703;BME280;2876;51.738;10.050;2023-05-12T04:18:25;99324.72;;;11.92;100.00
5703;BME280;2876;51.738;10.050;2023-05-12T04:24:27;99318.28;;;12.06;100.00
5703;BME280;2876;51.738;10.050;2023-05-12T04:30:29;99329.44;;;12.23;100.00
5703;BME280;2876;51.738;10.050;2023-05-12T04:36:30;99328.78;;;12.21;100.00
5703;BME280;2876;51.738;10.050;2023-05-12T04:42:34;99337.47;;;12.36;100.00
5703;BME280;2876;51.738;10.050;2023-05-12T04:48:36;99345.72;;;12.41;100.00
5703;BME280;2876;51.738;10.050;2023-05-12T04:54:42;99343.22;;;12.47;100.00
5703;BME280;2876;51.738;10.050;2023-05-12T05:00:44;99344.47;;;12.51;100.00
5703;BME280;2876;51.738;10.050;2023-05-12T05:06:46;99343.31;;;12.78;100.00
5703;BME280;2876;51.738;10.050;2023-05-12T05:12:48;99361.06;;;12.92;100.00
5703;BME280;2876;51.738;10.050;2023-05-12T05:18:50;99368.91;;;12.94;100.00
5703;BME280;2876;51.738;10.050;2023-05-12T05:24:52;99364.22;;;13.21;100.00
5703;BME280;2876;51.738;10.050;2023-05-12T05:30:54;99364.09;;;13.48;100.00
5703;BME280;2876;51.738;10.050;2023-05-12T05:36:56;99365.94;;;13.54;100.00
5703;BME280;2876;51.738;10.050;2023-05-12T05:42:58;99376.41;;;13.68;100.00
5703;BME280;2876;51.738;10.050;2023-05-12T05:49:00;99369.03;;;13.82;100.00
5703;BME280;2876;51.738;10.050;2023-05-12T05:55:02;99369.41;;;14.11;100.00
5703;BME280;2876;51.738;10.050;2023-05-12T06:01:04;99379.19;;;14.30;100.00
5703;BME280;2876;51.738;10.050;2023-05-12T06:07:06;99394.56;;;14.55;100.00
5703;BME280;2876;51.738;10.050;2023-05-12T06:13:08;99389.47;;;14.65;99.88
5703;BME280;2876;51.738;10.050;2023-05-12T06:19:10;99403.25;;;14.93;99.60
5703;BME280;2876;51.738;10.050;2023-05-12T06:25:13;99395.50;;;15.15;99.43
5703;BME280;2876;51.738;10.050;2023-05-12T06:31:15;99398.19;;;15.64;94.89
5703;BME280;2876;51.738;10.050;2023-05-12T06:37:17;99412.69;;;15.51;94.97
5703;BME280;2876;51.738;10.050;2023-05-12T06:43:19;99411.66;;;15.82;95.40
5703;BME280;2876;51.738;10.050;2023-05-12T06:49:21;99410.25;;;16.03;91.15
5703;BME280;2876;51.738;10.050;2023-05-12T06:55:23;99405.00;;;16.20;90.70
5703;BME280;2876;51.738;10.050;2023-05-12T07:01:30;99405.59;;;16.45;91.63
5703;BME280;2876;51.738;10.050;2023-05-12T07:30:53;99408.66;;;17.98;86.12
5703;BME280;2876;51.738;10.050;2023-05-12T10:26:20;99396.59;;;25.90;34.58
5703;BME280;2876;51.738;10.050;2023-05-12T10:33:09;99400.97;;;25.91;33.53
5703;BME280;2876;51.738;10.050;2023-05-12T10:47:49;99400.38;;;26.73;31.96
5703;BME280;2876;51.738;10.050;2023-05-12T10:54:20;99400.28;;;26.92;31.83
5703;BME280;2876;51.738;10.050;2023-05-12T11:01:36;99401.03;;;25.86;32.24
5703;BME280;2876;51.738;10.050;2023-05-12T13:00:07;99436.63;;;25.77;33.54
5703;BME280;2876;51.738;10.050;2023-05-12T13:06:46;99427.09;;;26.72;30.43
5703;BME280;2876;51.738;10.050;2023-05-12T13:13:25;99425.75;;;28.02;30.02
5703;BME280;2876;51.738;10.050;2023-05-12T13:26:39;99442.28;;;30.45;24.44
5703;BME280;2876;51.738;10.050;2023-05-12T14:18:54;99409.72;;;33.38;22.11
5703;BME280;2876;51.738;10.050;2023-05-12T14:32:14;99419.53;;;29.78;26.88
5703;BME280;2876;51.738;10.050;2023-05-12T14:38:19;99412.88;;;30.70;25.59
5703;BME280;2876;51.738;10.050;2023-05-12T14:44:24;99420.28;;;31.04;24.81
5703;BME280;2876;51.738;10.050;2023-05-12T14:50:41;99409.53;;;28.54;27.77
5703;BME280;2876;51.738;10.050;2023-05-12T15:19:36;99418.34;;;33.45;22.42
5703;BME280;2876;51.738;10.050;2023-05-12T15:25:40;99414.38;;;34.87;21.18
5703;BME280;2876;51.738;10.050;2023-05-12T15:31:43;99420.31;;;32.17;22.83
5703;BME280;2876;51.738;10.050;2023-05-12T15:54:00;99416.19;;;31.40;24.21
5703;BME280;2876;51.738;10.050;2023-05-12T16:00:16;99420.44;;;32.99;22.84
5703;BME280;2876;51.738;10.050;2023-05-12T16:06:58;99417.97;;;33.59;22.33
5703;BME280;2876;51.738;10.050;2023-05-12T16:13:56;99409.75;;;30.07;25.38
5703;BME280;2876;51.738;10.050;2023-05-12T16:20:13;99409.94;;;27.58;27.90
5703;BME280;2876;51.738;10.050;2023-05-12T16:32:46;99396.84;;;24.84;32.61
5703;BME280;2876;51.738;10.050;2023-05-12T16:39:00;99404.75;;;24.37;33.97
5703;BME280;2876;51.738;10.050;2023-05-12T16:52:40;99404.03;;;28.10;29.82
5703;BME280;2876;51.738;10.050;2023-05-12T16:58:44;99417.34;;;28.61;28.24
5703;BME280;2876;51.738;10.050;2023-05-12T17:05:12;99434.84;;;29.76;26.45
5703;BME280;2876;51.738;10.050;2023-05-12T17:18:24;99428.16;;;27.68;27.24
5703;BME280;2876;51.738;10.050;2023-05-12T17:25:33;99429.22;;;24.87;32.32
5703;BME280;2876;51.738;10.050;2023-05-12T17:31:55;99433.31;;;23.92;33.17
5703;BME280;2876;51.738;10.050;2023-05-12T17:38:02;99447.16;;;23.01;36.59
5703;BME280;2876;51.738;10.050;2023-05-12T17:44:10;99435.78;;;22.33;38.48
5703;BME280;2876;51.738;10.050;2023-05-12T17:50:17;99443.94;;;22.02;43.54
5703;BME280;2876;51.738;10.050;2023-05-12T17:56:31;99438.34;;;21.41;40.99
5703;BME280;2876;51.738;10.050;2023-05-12T18:03:11;99452.59;;;20.96;44.60
5703;BME280;2876;51.738;10.050;2023-05-12T18:16:15;99459.81;;;20.06;49.21
5703;BME280;2876;51.738;10.050;2023-05-12T18:37:13;99470.09;;;20.58;49.47
5703;BME280;2876;51.738;10.050;2023-05-12T18:52:01;99478.13;;;18.79;55.48
5703;BME280;2876;51.738;10.050;2023-05-12T18:58:27;99482.41;;;18.41;55.58
5703;BME280;2876;51.738;10.050;2023-05-12T19:04:30;99491.63;;;18.23;54.38
5703;BME280;2876;51.738;10.050;2023-05-12T19:10:32;99501.06;;;18.04;54.65
5703;BME280;2876;51.738;10.050;2023-05-12T19:16:33;99511.91;;;17.75;57.30
5703;BME280;2876;51.738;10.050;2023-05-12T19:22:37;99517.63;;;17.50;55.93
5703;BME280;2876;51.738;10.050;2023-05-12T19:28:39;99517.19;;;17.30;56.70
5703;BME280;2876;51.738;10.050;2023-05-12T19:34:40;99518.41;;;16.98;57.93
5703;BME280;2876;51.738;10.050;2023-05-12T19:40:43;99520.66;;;17.02;57.41
5703;BME280;2876;51.738;10.050;2023-05-12T19:46:45;99518.19;;;16.88;56.97
5703;BME280;2876;51.738;10.050;2023-05-12T19:52:47;99525.25;;;16.78;57.53
5703;BME280;2876;51.738;10.050;2023-05-12T19:58:49;99532.09;;;16.80;57.11
5703;BME280;2876;51.738;10.050;2023-05-12T20:04:53;99529.09;;;16.70;56.99
5703;BME280;2876;51.738;10.050;2023-05-12T20:10:55;99535.63;;;16.81;56.36
5703;BME280;2876;51.738;10.050;2023-05-12T20:16:57;99541.47;;;16.66;56.87
5703;BME280;2876;51.738;10.050;2023-05-12T20:22:59;99544.53;;;16.69;55.89
5703;BME280;2876;51.738;10.050;2023-05-12T20:29:01;99549.38;;;16.67;56.51
5703;BME280;2876;51.738;10.050;2023-05-12T20:35:05;99551.00;;;16.57;57.21
5703;BME280;2876;51.738;10.050;2023-05-12T20:41:07;99552.28;;;16.54;57.07
5703;BME280;2876;51.738;10.050;2023-05-12T20:47:09;99553.63;;;16.98;52.25
5703;BME280;2876;51.738;10.050;2023-05-12T20:53:11;99553.19;;;17.02;51.80
5703;BME280;2876;51.738;10.050;2023-05-12T20:59:13;99556.81;;;17.07;52.15
5703;BME280;2876;51.738;10.050;2023-05-12T21:05:15;99559.06;;;16.98;52.55
5703;BME280;2876;51.738;10.050;2023-05-12T21:11:18;99554.84;;;16.91;52.83
5703;BME280;2876;51.738;10.050;2023-05-12T21:17:20;99557.72;;;16.66;54.06
5703;BME280;2876;51.738;10.050;2023-05-12T21:23:22;99557.94;;;16.53;55.70
5703;BME280;2876;51.738;10.050;2023-05-12T21:29:24;99559.44;;;16.48;55.46
5703;BME280;2876;51.738;10.050;2023-05-12T21:35:26;99557.19;;;16.34;55.17
5703;BME280;2876;51.738;10.050;2023-05-12T21:41:28;99565.28;;;16.22;55.45
5703;BME280;2876;51.738;10.050;2023-05-12T21:47:30;99556.66;;;16.13;57.14
5703;BME280;2876;51.738;10.050;2023-05-12T21:53:32;99561.56;;;16.05;56.85
5703;BME280;2876;51.738;10.050;2023-05-12T21:59:34;99558.16;;;15.79;56.95
5703;BME280;2876;51.738;10.050;2023-05-12T22:05:36;99555.03;;;15.94;55.82
5703;BME280;2876;51.738;10.050;2023-05-12T22:11:38;99556.75;;;16.07;54.39
5703;BME280;2876;51.738;10.050;2023-05-12T22:17:40;99558.25;;;16.03;55.98
5703;BME280;2876;51.738;10.050;2023-05-12T22:23:42;99557.28;;;16.27;54.93
5703;BME280;2876;51.738;10.050;2023-05-12T22:29:44;99558.06;;;16.16;58.15
5703;BME280;2876;51.738;10.050;2023-05-12T22:35:46;99562.13;;;15.95;58.70
5703;BME280;2876;51.738;10.050;2023-05-12T22:41:48;99566.34;;;15.91;60.13
5703;BME280;2876;51.738;10.050;2023-05-12T22:47:50;99564.63;;;15.60;61.78
5703;BME280;2876;51.738;10.050;2023-05-12T22:53:52;99565.81;;;15.45;60.81
5703;BME280;2876;51.738;10.050;2023-05-12T22:59:54;99570.47;;;15.38;58.75
5703;BME280;2876;51.738;10.050;2023-05-12T23:05:56;99571.13;;;15.34;60.58
5703;BME280;2876;51.738;10.050;2023-05-12T23:11:57;99567.22;;;15.30;59.96
5703;BME280;2876;51.738;10.050;2023-05-12T23:17:59;99570.66;;;15.00;61.81
5703;BME280;2876;51.738;10.050;2023-05-12T23:24:02;99569.84;;;15.00;61.30
5703;BME280;2876;51.738;10.050;2023-05-12T23:30:04;99569.97;;;14.86;62.32
5703;BME280;2876;51.738;10.050;2023-05-12T23:36:07;99577.13;;;14.49;64.57
5703;BME280;2876;51.738;10.050;2023-05-12T23:42:09;99571.63;;;14.24;66.23
5703;BME280;2876;51.738;10.050;2023-05-12T23:48:11;99572.41;;;14.00;68.19
5703;BME280;2876;51.738;10.050;2023-05-12T23:54:13;99579.63;;;13.61;70.92
